sensor_id;sensor_type;location;lat;lon;timestamp;pressure;altitude;pressure_sealevel;temperature;humidity
27729;BME280;15126;42.186;24.340;2023-03-12T00:01:14;98304.16;;;7.89;68.25
27729;BME280;15126;42.186;24.340;2023-03-12T00:03:42;98321.94;;;7.91;69.13
27729;BME280;15126;42.186;24.340;2023-03-12T00:06:09;98316.59;;;7.84;68.35
27729;BME280;15126;42.186;24.340;2023-03-12T00:08:38;98320.97;;;7.98;68.96
27729;BME280;15126;42.186;24.340;2023-03-12T00:11:07;98326.63;;;7.94;67.46
27729;BME280;15126;42.186;24.340;2023-03-12T00:13:34;98325.84;;;7.94;66.80
27729;BME280;15126;42.186;24.340;2023-03-12T00:16:06;98334.69;;;7.89;66.48
27729;BME280;15126;42.186;24.340;2023-03-12T00:18:33;98341.38;;;7.91;66.53
27729;BME280;15126;42.186;24.340;2023-03-12T00:21:00;98346.59;;;7.89;66.45
27729;BME280;15126;42.186;24.340;2023-03-12T00:23:27;98340.34;;;7.85;68.25
27729;BME280;15126;42.186;24.340;2023-03-12T00:25:58;98345.38;;;7.90;66.45
27729;BME280;15126;42.186;24.340;2023-03-12T00:28:25;98355.97;;;7.79;64.69
27729;BME280;15126;42.186;24.340;2023-03-12T00:30:52;98351.97;;;7.80;65.47
27729;BME280;15126;42.186;24.340;2023-03-12T00:33:19;98340.03;;;7.67;66.76
27729;BME280;15126;42.186;24.340;2023-03-12T00:35:46;98362.84;;;7.74;63.63
27729;BME280;15126;42.186;24.340;2023-03-12T00:38:13;98340.22;;;7.60;62.59
27729;BME280;15126;42.186;24.340;2023-03-12T00:40:40;98362.91;;;7.71;60.16
27729;BME280;15126;42.186;24.340;2023-03-12T00:43:08;98355.47;;;7.52;60.75
27729;BME280;15126;42.186;24.340;2023-03-12T00:45:35;98370.00;;;7.56;59.34
27729;BME280;15126;42.186;24.340;2023-03-12T00:48:04;98372.78;;;7.56;59.79
27729;BME280;15126;42.186;24.340;2023-03-12T00:50:31;98362.81;;;7.42;60.75
27729;BME280;15126;42.186;24.340;2023-03-12T00:52:59;98368.28;;;7.46;61.63
27729;BME280;15126;42.186;24.340;2023-03-12T00:55:25;98366.97;;;7.34;60.20
27729;BME280;15126;42.186;24.340;2023-03-12T00:57:52;98356.91;;;7.24;59.76
27729;BME280;15126;42.186;24.340;2023-03-12T01:00:21;98359.00;;;7.20;59.82
27729;BME280;15126;42.186;24.340;2023-03-12T01:02:48;98356.03;;;7.11;62.85
27729;BME280;15126;42.186;24.340;2023-03-12T01:05:15;98356.03;;;7.11;59.92
27729;BME280;15126;42.186;24.340;2023-03-12T01:07:42;98370.69;;;7.11;59.13
27729;BME280;15126;42.186;24.340;2023-03-12T01:10:12;98358.81;;;7.11;61.97
27729;BME280;15126;42.186;24.340;2023-03-12T01:12:39;98366.00;;;7.08;58.38
27729;BME280;15126;42.186;24.340;2023-03-12T01:15:06;98371.34;;;6.99;60.56
27729;BME280;15126;42.186;24.340;2023-03-12T01:17:34;98356.00;;;6.95;58.53
27729;BME280;15126;42.186;24.340;2023-03-12T01:20:02;98373.78;;;6.97;59.77
27729;BME280;15126;42.186;24.340;2023-03-12T01:22:32;98387.19;;;6.99;58.86
27729;BME280;15126;42.186;24.340;2023-03-12T01:24:59;98379.31;;;6.97;58.12
27729;BME280;15126;42.186;24.340;2023-03-12T01:27:26;98379.81;;;6.92;60.36
27729;BME280;15126;42.186;24.340;2023-03-12T01:29:53;98381.53;;;6.86;59.75
27729;BME280;15126;42.186;24.340;2023-03-12T01:32:20;98387.88;;;6.87;60.71
27729;BME280;15126;42.186;24.340;2023-03-12T01:34:48;98385.16;;;6.83;61.01
27729;BME280;15126;42.186;24.340;2023-03-12T01:37:15;98399.63;;;6.91;61.32
27729;BME280;15126;42.186;24.340;2023-03-12T01:39:42;98390.91;;;6.92;58.48
27729;BME280;15126;42.186;24.340;2023-03-12T01:42:09;98372.72;;;6.72;59.64
27729;BME280;15126;42.186;24.340;2023-03-12T01:44:53;98398.94;;;6.87;61.42
27729;BME280;15126;42.186;24.340;2023-03-12T01:47:20;98405.75;;;6.82;58.59
27729;BME280;15126;42.186;24.340;2023-03-12T01:49:50;98404.56;;;6.83;60.58
27729;BME280;15126;42.186;24.340;2023-03-12T01:52:20;98404.22;;;6.62;57.37
27729;BME280;15126;42.186;24.340;2023-03-12T01:54:49;98411.97;;;6.70;59.74
27729;BME280;15126;42.186;24.340;2023-03-12T01:57:21;98405.13;;;6.75;58.44
27729;BME280;15126;42.186;24.340;2023-03-12T01:59:51;98411.72;;;6.81;58.39
27729;BME280;15126;42.186;24.340;2023-03-12T02:02:19;98408.84;;;6.68;60.45
27729;BME280;15126;42.186;24.340;2023-03-12T02:04:56;98425.31;;;6.75;57.87
27729;BME280;15126;42.186;24.340;2023-03-12T02:07:27;98426.38;;;6.62;57.80
27729;BME280;15126;42.186;24.340;2023-03-12T02:09:54;98437.03;;;6.63;58.34
27729;BME280;15126;42.186;24.340;2023-03-12T02:12:20;98411.66;;;6.45;57.70
27729;BME280;15126;42.186;24.340;2023-03-12T02:14:47;98433.25;;;6.53;56.52
27729;BME280;15126;42.186;24.340;2023-03-12T02:17:14;98436.81;;;6.54;57.93
27729;BME280;15126;42.186;24.340;2023-03-12T02:19:46;98436.81;;;6.54;59.13
27729;BME280;15126;42.186;24.340;2023-03-12T02:22:19;98450.06;;;6.43;59.44
27729;BME280;15126;42.186;24.340;2023-03-12T02:24:50;98438.44;;;6.51;57.91
27729;BME280;15126;42.186;24.340;2023-03-12T02:27:21;98449.72;;;6.41;58.97
27729;BME280;15126;42.186;24.340;2023-03-12T02:29:49;98445.81;;;6.38;58.35
27729;BME280;15126;42.186;24.340;2023-03-12T02:32:19;98435.31;;;6.30;59.50
27729;BME280;15126;42.186;24.340;2023-03-12T02:34:46;98444.09;;;6.25;58.14
27729;BME280;15126;42.186;24.340;2023-03-12T02:37:15;98443.72;;;6.23;59.38
27729;BME280;15126;42.186;24.340;2023-03-12T02:39:43;98452.03;;;6.23;60.92
27729;BME280;15126;42.186;24.340;2023-03-12T02:42:12;98446.19;;;6.17;57.42
27729;BME280;15126;42.186;24.340;2023-03-12T02:44:41;98453.84;;;6.10;59.24
27729;BME280;15126;42.186;24.340;2023-03-12T02:47:09;98430.75;;;5.96;57.24
27729;BME280;15126;42.186;24.340;2023-03-12T02:49:35;98431.94;;;5.95;59.52
27729;BME280;15126;42.186;24.340;2023-03-12T02:52:03;98449.69;;;5.98;57.85
27729;BME280;15126;42.186;24.340;2023-03-12T02:54:30;98450.13;;;5.96;58.45
27729;BME280;15126;42.186;24.340;2023-03-12T02:56:57;98449.38;;;5.92;56.80
27729;BME280;15126;42.186;24.340;2023-03-12T02:59:24;98447.47;;;5.89;56.91
27729;BME280;15126;42.186;24.340;2023-03-12T03:01:54;98440.88;;;5.80;55.97
27729;BME280;15126;42.186;24.340;2023-03-12T03:04:21;98453.38;;;5.91;56.07
27729;BME280;15126;42.186;24.340;2023-03-12T03:06:48;98446.59;;;5.92;55.52
27729;BME280;15126;42.186;24.340;2023-03-12T03:09:14;98458.53;;;5.89;55.60
27729;BME280;15126;42.186;24.340;2023-03-12T03:11:41;98457.63;;;5.96;55.30
27729;BME280;15126;42.186;24.340;2023-03-12T03:14:08;98452.53;;;5.94;54.87
27729;BME280;15126;42.186;24.340;2023-03-12T03:16:36;98445.06;;;5.91;54.20
27729;BME280;15126;42.186;24.340;2023-03-12T03:19:04;98448.22;;;5.90;53.21
27729;BME280;15126;42.186;24.340;2023-03-12T03:21:31;98460.44;;;5.92;55.41
27729;BME280;15126;42.186;24.340;2023-03-12T03:23:59;98471.06;;;5.97;55.57
27729;BME280;15126;42.186;24.340;2023-03-12T03:26:26;98489.88;;;6.06;55.88
27729;BME280;15126;42.186;24.340;2023-03-12T03:28:53;98492.09;;;6.15;55.20
27729;BME280;15126;42.186;24.340;2023-03-12T03:31:20;98498.06;;;6.13;55.55
27729;BME280;15126;42.186;24.340;2023-03-12T03:33:47;98503.91;;;6.19;53.84
27729;BME280;15126;42.186;24.340;2023-03-12T03:36:15;98498.00;;;6.17;54.96
27729;BME280;15126;42.186;24.340;2023-03-12T03:38:43;98499.34;;;6.09;54.15
27729;BME280;15126;42.186;24.340;2023-03-12T03:41:14;98510.63;;;6.18;53.41
27729;BME280;15126;42.186;24.340;2023-03-12T03:43:41;98517.41;;;6.17;54.81
27729;BME280;15126;42.186;24.340;2023-03-12T03:46:10;98526.47;;;6.17;55.39
27729;BME280;15126;42.186;24.340;2023-03-12T03:48:38;98521.00;;;6.14;54.77
27729;BME280;15126;42.186;24.340;2023-03-12T03:51:07;98523.06;;;6.06;54.99
27729;BME280;15126;42.186;24.340;2023-03-12T03:53:35;98528.91;;;6.12;54.93
27729;BME280;15126;42.186;24.340;2023-03-12T03:56:06;98528.59;;;6.06;54.44
27729;BME280;15126;42.186;24.340;2023-03-12T03:58:33;98527.00;;;6.09;53.62
27729;BME280;15126;42.186;24.340;2023-03-12T04:01:01;98509.00;;;5.97;54.99
27729;BME280;15126;42.186;24.340;2023-03-12T04:03:27;98525.50;;;6.04;54.48
27729;BME280;15126;42.186;24.340;2023-03-12T04:05:55;98516.88;;;5.98;53.96
27729;BME280;15126;42.186;24.340;2023-03-12T04:08:23;98539.28;;;6.08;55.79
27729;BME280;15126;42.186;24.340;2023-03-12T04:10:51;98533.47;;;5.98;54.33
27729;BME280;15126;42.186;24.340;2023-03-12T04:13:18;98535.72;;;6.07;56.26
27729;BME280;15126;42.186;24.340;2023-03-12T04:15:46;98542.44;;;6.06;55.10
27729;BME280;15126;42.186;24.340;2023-03-12T04:18:13;98550.19;;;5.91;56.49
27729;BME280;15126;42.186;24.340;2023-03-12T04:20:40;98542.38;;;5.86;54.63
27729;BME280;15126;42.186;24.340;2023-03-12T04:23:07;98557.75;;;5.87;55.72
27729;BME280;15126;42.186;24.340;2023-03-12T04:25:34;98562.81;;;5.92;55.58
27729;BME280;15126;42.186;24.340;2023-03-12T04:28:03;98564.75;;;5.95;55.96
27729;BME280;15126;42.186;24.340;2023-03-12T04:30:30;98554.44;;;5.69;54.18
27729;BME280;15126;42.186;24.340;2023-03-12T04:32:57;98582.84;;;5.73;54.22
27729;BME280;15126;42.186;24.340;2023-03-12T04:35:24;98579.75;;;5.68;54.59
27729;BME280;15126;42.186;24.340;2023-03-12T04:37:51;98577.44;;;5.63;55.69
27729;BME280;15126;42.186;24.340;2023-03-12T04:40:18;98583.81;;;5.60;56.10
27729;BME280;15126;42.186;24.340;2023-03-12T04:42:45;98579.06;;;5.60;54.71
27729;BME280;15126;42.186;24.340;2023-03-12T04:45:13;98563.38;;;5.50;55.90
27729;BME280;15126;42.186;24.340;2023-03-12T04:47:40;98580.03;;;5.47;56.04
27729;BME280;15126;42.186;24.340;2023-03-12T04:50:09;98567.44;;;5.42;54.90
27729;BME280;15126;42.186;24.340;2023-03-12T04:52:36;98572.25;;;5.38;56.19
27729;BME280;15126;42.186;24.340;2023-03-12T04:55:04;98591.91;;;5.43;57.64
27729;BME280;15126;42.186;24.340;2023-03-12T04:57:31;98581.72;;;5.37;56.69
27729;BME280;15126;42.186;24.340;2023-03-12T04:59:57;98594.56;;;5.54;55.97
27729;BME280;15126;42.186;24.340;2023-03-12T05:02:26;98610.81;;;5.49;55.05
27729;BME280;15126;42.186;24.340;2023-03-12T05:04:55;98615.22;;;5.46;55.70
27729;BME280;15126;42.186;24.340;2023-03-12T05:07:21;98617.88;;;5.53;57.22
27729;BME280;15126;42.186;24.340;2023-03-12T05:09:48;98617.19;;;5.46;54.79
27729;BME280;15126;42.186;24.340;2023-03-12T05:12:15;98617.06;;;5.53;54.46
27729;BME280;15126;42.186;24.340;2023-03-12T05:14:42;98627.41;;;5.49;52.24
27729;BME280;15126;42.186;24.340;2023-03-12T05:17:09;98633.66;;;5.53;53.41
27729;BME280;15126;42.186;24.340;2023-03-12T05:19:37;98630.56;;;5.47;55.02
27729;BME280;15126;42.186;24.340;2023-03-12T05:22:04;98640.00;;;5.53;53.71
27729;BME280;15126;42.186;24.340;2023-03-12T05:24:31;98651.75;;;5.61;54.61
27729;BME280;15126;42.186;24.340;2023-03-12T05:26:58;98657.97;;;5.68;54.74
27729;BME280;15126;42.186;24.340;2023-03-12T05:29:25;98656.06;;;5.65;54.14
27729;BME280;15126;42.186;24.340;2023-03-12T05:31:52;98667.03;;;5.72;54.61
27729;BME280;15126;42.186;24.340;2023-03-12T05:34:19;98670.50;;;5.76;56.38
27729;BME280;15126;42.186;24.340;2023-03-12T05:36:47;98665.03;;;5.73;55.25
27729;BME280;15126;42.186;24.340;2023-03-12T05:39:14;98679.78;;;5.96;53.63
27729;BME280;15126;42.186;24.340;2023-03-12T05:41:41;98692.59;;;6.14;54.25
27729;BME280;15126;42.186;24.340;2023-03-12T05:44:09;98686.13;;;6.24;52.66
27729;BME280;15126;42.186;24.340;2023-03-12T05:46:36;98689.50;;;6.38;51.72
27729;BME280;15126;42.186;24.340;2023-03-12T05:49:03;98687.28;;;6.53;51.49
27729;BME280;15126;42.186;24.340;2023-03-12T05:51:30;98706.03;;;6.69;51.43
27729;BME280;15126;42.186;24.340;2023-03-12T05:53:58;98677.13;;;6.70;48.98
27729;BME280;15126;42.186;24.340;2023-03-12T05:56:25;98714.06;;;6.86;51.27
27729;BME280;15126;42.186;24.340;2023-03-12T05:58:53;98720.22;;;6.97;53.14
27729;BME280;15126;42.186;24.340;2023-03-12T06:01:21;98715.63;;;7.10;49.52
27729;BME280;15126;42.186;24.340;2023-03-12T06:03:49;98736.34;;;7.26;48.85
27729;BME280;15126;42.186;24.340;2023-03-12T06:06:16;98724.56;;;7.22;48.00
27729;BME280;15126;42.186;24.340;2023-03-12T06:08:44;98735.06;;;7.34;49.60
27729;BME280;15126;42.186;24.340;2023-03-12T06:11:12;98733.28;;;7.43;47.49
27729;BME280;15126;42.186;24.340;2023-03-12T06:13:39;98743.63;;;7.62;47.45
27729;BME280;15126;42.186;24.340;2023-03-12T06:16:10;98748.13;;;7.76;46.54
27729;BME280;15126;42.186;24.340;2023-03-12T06:18:38;98753.97;;;7.82;45.56
27729;BME280;15126;42.186;24.340;2023-03-12T06:21:10;98753.31;;;7.94;46.06
27729;BME280;15126;42.186;24.340;2023-03-12T06:23:38;98760.97;;;8.09;44.83
27729;BME280;15126;42.186;24.340;2023-03-12T06:26:05;98757.19;;;8.19;46.44
27729;BME280;15126;42.186;24.340;2023-03-12T06:28:34;98757.63;;;8.37;46.65
27729;BME280;15126;42.186;24.340;2023-03-12T06:31:02;98756.91;;;8.53;43.93
27729;BME280;15126;42.186;24.340;2023-03-12T06:33:29;98769.91;;;8.56;46.98
27729;BME280;15126;42.186;24.340;2023-03-12T06:35:57;98774.75;;;8.72;44.40
27729;BME280;15126;42.186;24.340;2023-03-12T06:38:25;98769.88;;;8.76;43.99
27729;BME280;15126;42.186;24.340;2023-03-12T06:40:55;98772.00;;;8.88;43.10
27729;BME280;15126;42.186;24.340;2023-03-12T06:43:23;98776.16;;;8.96;44.31
27729;BME280;15126;42.186;24.340;2023-03-12T06:45:53;98778.78;;;9.19;44.09
27729;BME280;15126;42.186;24.340;2023-03-12T06:48:20;98784.19;;;9.26;43.47
27729;BME280;15126;42.186;24.340;2023-03-12T06:50:47;98793.72;;;9.41;41.17
27729;BME280;15126;42.186;24.340;2023-03-12T06:53:14;98798.25;;;9.51;44.31
27729;BME280;15126;42.186;24.340;2023-03-12T06:55:42;98782.94;;;9.43;40.91
27729;BME280;15126;42.186;24.340;2023-03-12T06:58:09;98800.53;;;9.56;43.64
27729;BME280;15126;42.186;24.340;2023-03-12T07:00:35;98811.38;;;9.67;41.78
27729;BME280;15126;42.186;24.340;2023-03-12T07:03:04;98811.19;;;9.74;43.66
27729;BME280;15126;42.186;24.340;2023-03-12T07:05:31;98818.75;;;9.74;42.12
27729;BME280;15126;42.186;24.340;2023-03-12T07:07:58;98812.63;;;9.95;42.16
27729;BME280;15126;42.186;24.340;2023-03-12T07:10:25;98823.72;;;10.11;42.61
27729;BME280;15126;42.186;24.340;2023-03-12T07:12:54;98809.44;;;10.25;43.24
27729;BME280;15126;42.186;24.340;2023-03-12T07:15:21;98819.31;;;10.42;43.91
27729;BME280;15126;42.186;24.340;2023-03-12T07:17:48;98783.72;;;10.34;43.03
27729;BME280;15126;42.186;24.340;2023-03-12T07:20:17;98826.84;;;10.70;41.14
27729;BME280;15126;42.186;24.340;2023-03-12T07:22:44;98810.31;;;10.63;40.61
27729;BME280;15126;42.186;24.340;2023-03-12T07:25:11;98826.53;;;10.81;38.72
27729;BME280;15126;42.186;24.340;2023-03-12T07:27:37;98827.19;;;10.72;37.89
27729;BME280;15126;42.186;24.340;2023-03-12T07:30:05;98828.84;;;10.70;38.22
27729;BME280;15126;42.186;24.340;2023-03-12T07:32:32;98839.69;;;10.68;41.57
27729;BME280;15126;42.186;24.340;2023-03-12T07:35:01;98837.72;;;10.52;40.00
27729;BME280;15126;42.186;24.340;2023-03-12T07:37:29;98846.97;;;10.49;38.43
27729;BME280;15126;42.186;24.340;2023-03-12T07:39:56;98853.38;;;10.62;42.03
27729;BME280;15126;42.186;24.340;2023-03-12T07:42:23;98847.81;;;10.62;39.96
27729;BME280;15126;42.186;24.340;2023-03-12T07:44:50;98846.44;;;10.54;43.04
27729;BME280;15126;42.186;24.340;2023-03-12T07:47:17;98835.72;;;10.53;39.86
27729;BME280;15126;42.186;24.340;2023-03-12T07:49:43;98839.41;;;10.50;39.72
27729;BME280;15126;42.186;24.340;2023-03-12T07:52:10;98845.31;;;10.52;40.74
27729;BME280;15126;42.186;24.340;2023-03-12T07:54:38;98852.75;;;10.42;42.94
27729;BME280;15126;42.186;24.340;2023-03-12T07:57:05;98842.38;;;10.43;39.52
27729;BME280;15126;42.186;24.340;2023-03-12T07:59:32;98844.88;;;10.53;41.89
27729;BME280;15126;42.186;24.340;2023-03-12T08:01:59;98862.28;;;10.57;41.68
27729;BME280;15126;42.186;24.340;2023-03-12T08:04:26;98829.56;;;10.45;39.92
27729;BME280;15126;42.186;24.340;2023-03-12T08:06:53;98857.28;;;10.65;41.10
27729;BME280;15126;42.186;24.340;2023-03-12T08:09:20;98846.72;;;10.72;40.47
27729;BME280;15126;42.186;24.340;2023-03-12T08:11:48;98847.13;;;10.58;37.29
27729;BME280;15126;42.186;24.340;2023-03-12T08:14:15;98857.88;;;10.72;39.26
27729;BME280;15126;42.186;24.340;2023-03-12T08:16:41;98872.22;;;10.71;37.48
27729;BME280;15126;42.186;24.340;2023-03-12T08:19:08;98861.50;;;10.57;37.46
27729;BME280;15126;42.186;24.340;2023-03-12T08:21:36;98853.56;;;10.55;41.83
27729;BME280;15126;42.186;24.340;2023-03-12T08:24:20;98869.56;;;10.67;44.00
27729;BME280;15126;42.186;24.340;2023-03-12T08:26:48;98860.19;;;10.74;35.90
27729;BME280;15126;42.186;24.340;2023-03-12T08:29:16;98868.00;;;10.79;41.19
27729;BME280;15126;42.186;24.340;2023-03-12T08:31:43;98850.38;;;10.69;39.88
27729;BME280;15126;42.186;24.340;2023-03-12T08:34:10;98865.91;;;10.70;37.25
27729;BME280;15126;42.186;24.340;2023-03-12T08:36:37;98863.22;;;10.80;41.40
27729;BME280;15126;42.186;24.340;2023-03-12T08:39:04;98852.63;;;10.87;36.91
27729;BME280;15126;42.186;24.340;2023-03-12T08:41:31;98831.00;;;10.91;38.05
27729;BME280;15126;42.186;24.340;2023-03-12T08:43:59;98837.16;;;10.99;38.94
27729;BME280;15126;42.186;24.340;2023-03-12T08:46:26;98837.16;;;11.11;40.78
27729;BME280;15126;42.186;24.340;2023-03-12T08:48:54;98843.41;;;11.15;35.83
27729;BME280;15126;42.186;24.340;2023-03-12T08:51:20;98845.50;;;10.99;38.65
27729;BME280;15126;42.186;24.340;2023-03-12T08:53:47;98851.19;;;10.83;36.77
27729;BME280;15126;42.186;24.340;2023-03-12T08:56:14;98858.75;;;10.82;39.02
27729;BME280;15126;42.186;24.340;2023-03-12T08:58:41;98843.50;;;10.99;40.76
27729;BME280;15126;42.186;24.340;2023-03-12T09:01:10;98851.56;;;10.97;39.72
27729;BME280;15126;42.186;24.340;2023-03-12T09:03:37;98867.97;;;11.08;37.93
27729;BME280;15126;42.186;24.340;2023-03-12T09:06:07;98872.75;;;11.07;38.93
27729;BME280;15126;42.186;24.340;2023-03-12T09:08:38;98866.63;;;11.00;38.71
27729;BME280;15126;42.186;24.340;2023-03-12T09:11:05;98876.19;;;10.99;36.04
27729;BME280;15126;42.186;24.340;2023-03-12T09:13:31;98876.19;;;10.99;37.96
27729;BME280;15126;42.186;24.340;2023-03-12T09:15:59;98872.75;;;11.20;35.69
27729;BME280;15126;42.186;24.340;2023-03-12T09:18:28;98860.84;;;11.19;34.58
27729;BME280;15126;42.186;24.340;2023-03-12T09:20:56;98855.50;;;11.25;36.33
27729;BME280;15126;42.186;24.340;2023-03-12T09:23:23;98849.31;;;11.17;37.09
27729;BME280;15126;42.186;24.340;2023-03-12T09:25:51;98835.81;;;11.16;36.91
27729;BME280;15126;42.186;24.340;2023-03-12T09:28:18;98838.97;;;11.30;35.45
27729;BME280;15126;42.186;24.340;2023-03-12T09:30:45;98820.75;;;11.13;35.43
27729;BME280;15126;42.186;24.340;2023-03-12T09:33:15;98816.72;;;11.14;34.25
27729;BME280;15126;42.186;24.340;2023-03-12T09:35:43;98806.47;;;10.99;38.61
27729;BME280;15126;42.186;24.340;2023-03-12T09:38:12;98800.09;;;10.86;38.02
27729;BME280;15126;42.186;24.340;2023-03-12T09:40:43;98809.69;;;10.97;39.17
27729;BME280;15126;42.186;24.340;2023-03-12T09:43:17;98804.78;;;10.89;39.29
27729;BME280;15126;42.186;24.340;2023-03-12T09:45:46;98805.22;;;10.74;38.62
27729;BME280;15126;42.186;24.340;2023-03-12T09:48:17;98809.13;;;10.77;41.06
27729;BME280;15126;42.186;24.340;2023-03-12T09:50:48;98809.13;;;10.77;35.90
27729;BME280;15126;42.186;24.340;2023-03-12T09:53:21;98786.91;;;10.73;37.84
27729;BME280;15126;42.186;24.340;2023-03-12T09:55:51;98790.25;;;10.68;37.18
27729;BME280;15126;42.186;24.340;2023-03-12T09:58:23;98827.53;;;10.87;36.09
27729;BME280;15126;42.186;24.340;2023-03-12T10:00:54;98844.16;;;10.91;38.29
27729;BME280;15126;42.186;24.340;2023-03-12T10:04:00;98840.03;;;10.83;37.09
27729;BME280;15126;42.186;24.340;2023-03-12T10:06:34;98855.88;;;10.86;35.69
27729;BME280;15126;42.186;24.340;2023-03-12T10:09:16;98861.94;;;10.97;36.69
27729;BME280;15126;42.186;24.340;2023-03-12T10:11:52;98854.13;;;10.92;36.65
27729;BME280;15126;42.186;24.340;2023-03-12T10:14:32;98857.91;;;10.98;38.41
27729;BME280;15126;42.186;24.340;2023-03-12T10:17:20;98864.63;;;11.13;40.82
27729;BME280;15126;42.186;24.340;2023-03-12T10:20:02;98855.50;;;11.25;36.62
27729;BME280;15126;42.186;24.340;2023-03-12T10:22:48;98845.88;;;11.26;41.29
27729;BME280;15126;42.186;24.340;2023-03-12T10:25:22;98832.25;;;11.15;37.95
27729;BME280;15126;42.186;24.340;2023-03-12T10:27:54;98842.75;;;11.24;36.93
27729;BME280;15126;42.186;24.340;2023-03-12T10:30:27;98848.75;;;11.48;38.21
27729;BME280;15126;42.186;24.340;2023-03-12T10:32:55;98834.00;;;11.47;38.31
27729;BME280;15126;42.186;24.340;2023-03-12T10:35:25;98839.50;;;11.51;35.04
27729;BME280;15126;42.186;24.340;2023-03-12T10:37:56;98835.91;;;11.50;36.37
27729;BME280;15126;42.186;24.340;2023-03-12T10:40:26;98838.03;;;11.59;35.55
27729;BME280;15126;42.186;24.340;2023-03-12T10:42:53;98831.00;;;11.54;36.41
27729;BME280;15126;42.186;24.340;2023-03-12T10:45:26;98853.56;;;11.47;36.60
27729;BME280;15126;42.186;24.340;2023-03-12T10:47:58;98854.56;;;11.53;38.25
27729;BME280;15126;42.186;24.340;2023-03-12T10:50:32;98854.88;;;11.55;36.63
27729;BME280;15126;42.186;24.340;2023-03-12T10:53:22;98853.09;;;11.61;37.36
27729;BME280;15126;42.186;24.340;2023-03-12T10:56:06;98864.94;;;11.65;38.70
27729;BME280;15126;42.186;24.340;2023-03-12T10:58:36;98840.03;;;11.58;35.43
27729;BME280;15126;42.186;24.340;2023-03-12T11:01:04;98854.88;;;11.68;37.38
27729;BME280;15126;42.186;24.340;2023-03-12T11:03:32;98850.19;;;11.65;37.92
27729;BME280;15126;42.186;24.340;2023-03-12T11:06:00;98845.41;;;11.78;36.21
27729;BME280;15126;42.186;24.340;2023-03-12T11:08:33;98835.66;;;11.82;36.94
27729;BME280;15126;42.186;24.340;2023-03-12T11:11:01;98822.34;;;11.86;35.28
27729;BME280;15126;42.186;24.340;2023-03-12T11:13:30;98827.94;;;11.86;37.02
27729;BME280;15126;42.186;24.340;2023-03-12T11:15:59;98817.78;;;11.92;35.24
27729;BME280;15126;42.186;24.340;2023-03-12T11:18:29;98819.00;;;11.91;34.29
27729;BME280;15126;42.186;24.340;2023-03-12T11:21:11;98811.06;;;11.90;36.67
27729;BME280;15126;42.186;24.340;2023-03-12T11:23:42;98802.53;;;11.93;34.17
27729;BME280;15126;42.186;24.340;2023-03-12T11:26:16;98801.31;;;11.94;34.83
27729;BME280;15126;42.186;24.340;2023-03-12T11:28:47;98821.63;;;12.08;35.41
27729;BME280;15126;42.186;24.340;2023-03-12T11:31:21;98797.03;;;12.03;33.14
27729;BME280;15126;42.186;24.340;2023-03-12T11:33:50;98816.06;;;11.95;37.47
27729;BME280;15126;42.186;24.340;2023-03-12T11:36:27;98803.81;;;11.80;37.76
27729;BME280;15126;42.186;24.340;2023-03-12T11:39:02;98810.28;;;11.89;37.01
27729;BME280;15126;42.186;24.340;2023-03-12T11:41:44;98810.03;;;11.97;36.15
27729;BME280;15126;42.186;24.340;2023-03-12T11:44:25;98807.06;;;12.13;35.70
27729;BME280;15126;42.186;24.340;2023-03-12T11:47:05;98801.88;;;12.24;36.00
27729;BME280;15126;42.186;24.340;2023-03-12T11:50:07;98799.97;;;12.21;34.66
27729;BME280;15126;42.186;24.340;2023-03-12T11:52:46;98815.13;;;12.32;35.84
27729;BME280;15126;42.186;24.340;2023-03-12T11:55:23;98813.19;;;12.42;38.04
27729;BME280;15126;42.186;24.340;2023-03-12T11:58:16;98813.06;;;12.45;35.64
27729;BME280;15126;42.186;24.340;2023-03-12T12:00:50;98813.19;;;12.42;34.72
27729;BME280;15126;42.186;24.340;2023-03-12T12:06:23;98806.28;;;12.55;35.67
27729;BME280;15126;42.186;24.340;2023-03-12T12:09:15;98820.53;;;12.70;34.14
27729;BME280;15126;42.186;24.340;2023-03-12T12:11:55;98819.31;;;12.71;33.16
27729;BME280;15126;42.186;24.340;2023-03-12T12:14:36;98805.06;;;12.57;32.13
27729;BME280;15126;42.186;24.340;2023-03-12T12:17:18;98822.34;;;12.64;32.22
27729;BME280;15126;42.186;24.340;2023-03-12T12:19:59;98809.81;;;12.47;37.95
27729;BME280;15126;42.186;24.340;2023-03-12T12:22:44;98823.34;;;12.48;35.85
27729;BME280;15126;42.186;24.340;2023-03-12T12:25:30;98815.97;;;12.42;34.46
27729;BME280;15126;42.186;24.340;2023-03-12T12:28:22;98810.22;;;12.36;34.66
27729;BME280;15126;42.186;24.340;2023-03-12T12:31:14;98818.53;;;12.49;34.36
27729;BME280;15126;42.186;24.340;2023-03-12T12:34:16;98814.44;;;12.41;34.15
27729;BME280;15126;42.186;24.340;2023-03-12T12:36:50;98823.47;;;12.45;34.30
27729;BME280;15126;42.186;24.340;2023-03-12T12:39:27;98833.28;;;12.49;34.78
27729;BME280;15126;42.186;24.340;2023-03-12T12:42:01;98814.13;;;12.39;34.38
27729;BME280;15126;42.186;24.340;2023-03-12T12:44:33;98835.22;;;12.40;34.92
27729;BME280;15126;42.186;24.340;2023-03-12T12:47:04;98823.34;;;12.48;33.60
27729;BME280;15126;42.186;24.340;2023-03-12T12:49:40;98821.50;;;12.54;37.04
27729;BME280;15126;42.186;24.340;2023-03-12T12:52:24;98821.44;;;12.67;35.22
27729;BME280;15126;42.186;24.340;2023-03-12T12:54:59;98830.75;;;12.64;35.81
27729;BME280;15126;42.186;24.340;2023-03-12T12:57:35;98823.78;;;12.69;35.12
27729;BME280;15126;42.186;24.340;2023-03-12T13:00:18;98819.88;;;12.66;35.63
27729;BME280;15126;42.186;24.340;2023-03-12T13:02:48;98833.59;;;12.73;35.34
27729;BME280;15126;42.186;24.340;2023-03-12T13:05:20;98832.09;;;12.81;35.49
27729;BME280;15126;42.186;24.340;2023-03-12T13:07:48;98835.22;;;12.83;36.25
27729;BME280;15126;42.186;24.340;2023-03-12T13:10:40;98835.81;;;12.78;36.37
27729;BME280;15126;42.186;24.340;2023-03-12T13:13:10;98831.91;;;12.76;35.49